Mount Pleasant, IA (52641)

2:30 AM CDT on September 05, 2015 (GMT -0500)
Becks Hybrids Facility | | Change Station
CLOSE
Current Station
Personal Weather Station
Location: Mount Pleasant, IA
Elevation: 728 ft
Nearby Weather Stations

Elev 728 ft 40.97 °N, 91.53 °W | Updated 21 seconds ago

Clear
Clear
76.4 °F
Feels Like 77 °F
N
3.0
Wind Variable Wind from South
Gusts 5.0 mph

Today
High -- | Low -- °F
--% Chance of Precip.
Yesterday
High -- | Low -- °F
Precip. -- in
6:36 AM 7:32 PM
Waning Gibbous, 51% visible
Pressure 30.02 in
Visibility 7.0 miles
Clouds Clear
Heat Index 77 °F
Dew Point 70 °F
Humidity 82%
Rainfall 0.00 in
Snow Depth Not available.
UV 0 out of 12
Pollen 8.80 out of 12
Air Quality Not available.
Flu Activity Not available.
METAR KMPZ 050715Z AUTO 19003KT 7SM CLR 24/20 A3002 RMK AO2 T02350201
Pressure 30.02 in
Visibility 7.0 miles
Clouds Clear
Heat Index 77 °F
Dew Point 70 °F
Humidity 82%
Rainfall 0.00 in
Snow Depth Not available.
UV 0 out of 12
Pollen 8.80 out of 12
Air Quality Not available.
Flu Activity Not available.
METAR KMPZ 050715Z AUTO 19003KT 7SM CLR 24/20 A3002 RMK AO2 T02350201

10-Day Weather Forecast

×

Almanac

Astronomy

Sep. 05, 2015 Rise Set
Actual Time
Civil Twilight
Nautical Twilight
Astronomical Twilight
Moon
Length of Visible Light
Length of Day
Tomorrow will be .
, % of the Moon is Illuminated

Today's Extremes

State Highs State Lows

Community

WunderPhotos

Upload Photos

1,852,436 photos uploaded!

WunderBlogs® & News

Nearby

Air Quality

  Air Quality AQ Index Pollutant
Not available.

Snow Depth

Station Depth Elevation

Earthquake Activity

City Distance Mag. Time & Date
Minimum magnitude displayed is 2.5.

Coastal Water Temperatures

Place Temperature

Stations

Nearby Weather Stations

Station Location Temp. Windchill Dew Point Humidity Wind Precip. Elev Updated Type